This is the latest recevied weather packets stored in our database for station/object W5ZYX. If no packets are shown the sender has not sent any weather packets the latest 10 day(s).
| Time | Temp. | Humidity | Pressure | Rain* | Wind** | Luminosity | Snow |
|---|---|---|---|---|---|---|---|
| 1788561062 | 31.67° C | 70% | 1012.8 hPa | 0 mm | - | - | - |
| 1788560163 | 32.78° C | 66% | 1012.8 hPa | 0 mm | - | - | - |
| 1788559837 | 33.33° C | 65% | 1012.8 hPa | 0 mm | - | - | - |
| 1788559537 | 33.33° C | 63% | 1012.8 hPa | 0 mm | - | - | - |
| 1788559265 | 33.33° C | 62% | 1012.8 hPa | 0 mm | - | - | - |
| 1788558361 | 33.33° C | 63% | 1012.8 hPa | 0 mm | - | - | - |
| 1788557736 | 32.78° C | 65% | 1013 hPa | 0 mm | - | - | - |
| 1788557456 | 32.78° C | 65% | 1012.9 hPa | 0 mm | - | - | - |
| 1788556838 | 32.22° C | 68% | 1013.2 hPa | 0 mm | - | - | - |
| 1788556561 | 31.67° C | 68% | 1013.3 hPa | 0 mm | - | - | - |
| 1788555037 | 31.67° C | 69% | 1013.6 hPa | 0 mm | - | - | - |
| 1788554136 | 31.67° C | 68% | 1013.6 hPa | 0 mm | - | - | - |
| 1788553856 | 31.67° C | 69% | 1013.7 hPa | 0 mm | - | - | - |
| 1788552987 | 30° C | 73% | 1013.9 hPa | 0 mm | - | - | - |
| 1788552637 | 30° C | 73% | 1014 hPa | 0 mm | - | - | - |
| 1788552336 | 30° C | 74% | 1014.1 hPa | 0 mm | - | - | - |
| 1788551737 | 30° C | 75% | 1014.1 hPa | 0 mm | - | - | - |
| 1788551437 | 30° C | 75% | 1014.2 hPa | 0 mm | - | - | - |
| 1788550840 | 29.44° C | 75% | 1014.5 hPa | 0 mm | - | - | - |
| 1788550537 | 30° C | 76% | 1014.6 hPa | 0 mm | - | - | - |
| 1788550264 | 30° C | 75% | 1014.6 hPa | 0 mm | - | - | - |
| 1788549937 | 30° C | 75% | 1014.5 hPa | 0 mm | - | - | - |
| 1788549636 | 30° C | 74% | 1014.5 hPa | 0 mm | - | - | - |
| 1788549362 | 30° C | 74% | 1014.7 hPa | 0 mm | - | - | - |
| 1788549041 | 30° C | 74% | 1014.7 hPa | 0 mm | - | - | - |
* Rain latest hour (hover to see other rain measurements)
** Current wind speed in m/s (hover to see current wind gust speed)